createdAt,value
2022-09-10T00:01:18.057Z,15.90
2022-09-10T00:03:45.088Z,15.90
2022-09-10T00:06:12.581Z,15.90
2022-09-10T00:08:40.080Z,16.00
2022-09-10T00:11:09.750Z,15.90
2022-09-10T00:13:40.572Z,15.90
2022-09-10T00:16:10.978Z,15.90
2022-09-10T00:18:39.125Z,16.00
2022-09-10T00:21:12.401Z,15.90
2022-09-10T00:23:39.579Z,16.00
2022-09-10T00:26:27.348Z,15.90
2022-09-10T00:28:56.143Z,15.90
2022-09-10T00:31:23.730Z,15.90
2022-09-10T00:33:51.234Z,15.90
2022-09-10T00:36:32.983Z,15.90
2022-09-10T00:39:02.381Z,15.90
2022-09-10T00:41:30.255Z,16.00
2022-09-10T00:43:59.661Z,16.00
2022-09-10T00:46:29.184Z,16.00
2022-09-10T00:48:58.383Z,16.00
2022-09-10T00:51:30.052Z,16.00
2022-09-10T00:53:58.507Z,16.00
2022-09-10T00:56:25.311Z,16.00
2022-09-10T00:58:52.718Z,15.90
2022-09-10T01:01:19.747Z,15.90
2022-09-10T01:03:47.317Z,15.90
2022-09-10T01:06:14.831Z,16.00
2022-09-10T01:08:41.717Z,16.00
2022-09-10T01:11:46.176Z,16.00
2022-09-10T01:14:36.080Z,16.00
2022-09-10T01:17:25.821Z,16.10
2022-09-10T01:20:14.840Z,16.10
2022-09-10T01:23:17.618Z,16.10
2022-09-10T01:26:03.373Z,16.10
2022-09-10T01:28:49.610Z,16.00
2022-09-10T01:31:42.089Z,16.00
2022-09-10T01:34:18.773Z,16.10
2022-09-10T01:36:48.979Z,16.00
2022-09-10T01:39:19.552Z,16.10
2022-09-10T01:41:48.302Z,16.10
2022-09-10T01:44:47.887Z,16.10
2022-09-10T01:47:51.375Z,16.10
2022-09-10T01:50:22.820Z,16.10
2022-09-10T01:53:05.066Z,16.00
2022-09-10T01:55:42.312Z,16.10
2022-09-10T01:58:17.347Z,16.10
2022-09-10T02:01:11.317Z,16.00
2022-09-10T02:03:40.431Z,16.10
2022-09-10T02:06:11.833Z,16.10
2022-09-10T02:08:41.342Z,16.10
2022-09-10T02:11:11.756Z,16.10
2022-09-10T02:13:44.604Z,16.10
2022-09-10T02:16:28.419Z,16.10
2022-09-10T02:18:57.736Z,16.10
2022-09-10T02:21:24.412Z,16.00
2022-09-10T02:23:56.796Z,16.10
2022-09-10T02:26:25.818Z,16.00
2022-09-10T02:28:54.503Z,16.00
2022-09-10T02:31:22.642Z,16.00
2022-09-10T02:33:51.139Z,16.00
2022-09-10T02:36:18.207Z,16.00
2022-09-10T02:38:45.731Z,16.00
2022-09-10T02:41:12.443Z,16.00
2022-09-10T02:43:42.585Z,16.00
2022-09-10T02:46:09.736Z,15.90
2022-09-10T02:48:37.404Z,15.90
2022-09-10T02:51:04.537Z,15.90
2022-09-10T02:53:31.740Z,16.00
2022-09-10T02:56:03.153Z,16.00
2022-09-10T02:58:34.097Z,16.00
2022-09-10T03:01:11.273Z,15.90
2022-09-10T03:03:39.125Z,15.90
2022-09-10T03:06:07.066Z,15.80
2022-09-10T03:08:34.479Z,15.90
2022-09-10T03:11:01.383Z,15.70
2022-09-10T03:13:29.391Z,15.80
2022-09-10T03:15:58.837Z,15.80
2022-09-10T03:18:27.555Z,15.80
2022-09-10T03:20:54.437Z,15.80
2022-09-10T03:23:21.161Z,15.70
2022-09-10T03:25:49.767Z,15.70
2022-09-10T03:28:20.318Z,15.70
2022-09-10T03:30:48.143Z,15.60
2022-09-10T03:33:21.033Z,15.60
2022-09-10T03:35:52.203Z,15.60
2022-09-10T03:38:18.900Z,15.60
2022-09-10T03:40:46.317Z,15.50
2022-09-10T03:43:12.994Z,15.50
2022-09-10T03:45:39.931Z,15.60
2022-09-10T03:48:06.740Z,15.50
2022-09-10T03:50:33.503Z,15.40
2022-09-10T03:53:01.572Z,15.40
2022-09-10T03:55:30.363Z,15.30
2022-09-10T03:57:58.232Z,15.30
2022-09-10T04:00:26.683Z,15.20
2022-09-10T04:02:53.802Z,15.30
2022-09-10T04:05:21.337Z,15.20
2022-09-10T04:07:48.912Z,15.20
2022-09-10T04:10:15.775Z,15.20
2022-09-10T04:12:42.579Z,15.20
2022-09-10T04:15:09.606Z,15.20
2022-09-10T04:17:36.534Z,15.30
2022-09-10T04:20:05.033Z,15.30
2022-09-10T04:22:32.752Z,15.30
2022-09-10T04:25:00.642Z,15.30
2022-09-10T04:27:28.472Z,15.40
2022-09-10T04:29:55.233Z,15.40
2022-09-10T04:32:21.928Z,15.30
2022-09-10T04:34:48.587Z,15.30
2022-09-10T04:37:19.257Z,15.40
2022-09-10T04:39:46.850Z,15.40
2022-09-10T04:42:15.337Z,15.40
2022-09-10T04:44:42.027Z,15.30
2022-09-10T04:47:08.690Z,15.30
2022-09-10T04:49:35.379Z,15.30
2022-09-10T04:52:02.508Z,15.30
2022-09-10T04:54:29.219Z,15.30
2022-09-10T04:56:56.228Z,15.30
2022-09-10T04:59:23.021Z,15.30
2022-09-10T05:01:50.281Z,15.30
2022-09-10T05:04:17.837Z,15.30
2022-09-10T05:06:44.673Z,15.30
2022-09-10T05:09:14.015Z,15.30
2022-09-10T05:11:41.349Z,15.30
2022-09-10T05:14:09.526Z,15.40
2022-09-10T05:16:37.263Z,15.40
2022-09-10T05:19:04.370Z,15.30
2022-09-10T05:21:35.576Z,15.40
2022-09-10T05:24:02.934Z,15.40
2022-09-10T05:26:29.663Z,15.40
2022-09-10T05:28:59.691Z,15.40
2022-09-10T05:31:27.960Z,15.40
2022-09-10T05:34:01.071Z,15.40
2022-09-10T05:36:29.158Z,15.40
2022-09-10T05:38:55.800Z,15.40
2022-09-10T05:41:23.758Z,15.50
2022-09-10T05:43:50.917Z,15.40
2022-09-10T05:46:19.043Z,15.50
2022-09-10T05:48:49.780Z,15.50
2022-09-10T05:51:18.929Z,15.50
2022-09-10T05:53:47.144Z,15.60
2022-09-10T05:56:14.213Z,15.60
2022-09-10T05:58:45.133Z,15.70
2022-09-10T06:01:13.650Z,16.20
2022-09-10T06:03:40.597Z,16.40
2022-09-10T06:06:07.879Z,16.70
2022-09-10T06:08:36.966Z,17.00
2022-09-10T06:11:11.878Z,17.00
2022-09-10T06:13:43.773Z,17.30
2022-09-10T06:16:12.514Z,18.10
2022-09-10T06:18:40.715Z,18.40
2022-09-10T06:21:13.013Z,18.90
2022-09-10T06:23:43.199Z,19.30
2022-09-10T06:26:13.516Z,19.10
2022-09-10T06:28:40.997Z,19.20
2022-09-10T06:31:10.885Z,19.10
2022-09-10T06:33:37.789Z,18.60
2022-09-10T06:36:06.029Z,18.60
2022-09-10T06:38:33.972Z,19.20
2022-09-10T06:41:04.721Z,18.80
2022-09-10T06:43:37.903Z,18.90
2022-09-10T06:47:02.309Z,18.80
2022-09-10T06:49:14.866Z,19.30
2022-09-10T06:51:45.983Z,19.60
2022-09-10T06:54:14.130Z,20.50
2022-09-10T06:56:42.687Z,21.30
2022-09-10T06:59:09.915Z,21.30
2022-09-10T07:01:43.111Z,21.60
2022-09-10T07:04:10.425Z,20.50
2022-09-10T07:06:37.285Z,20.80
2022-09-10T07:09:08.137Z,21.00
2022-09-10T07:11:41.681Z,20.60
2022-09-10T07:14:12.594Z,20.40
2022-09-10T07:16:44.328Z,20.60
2022-09-10T07:19:14.870Z,21.00
2022-09-10T07:21:45.034Z,20.60
2022-09-10T07:24:14.439Z,21.10
2022-09-10T07:27:00.418Z,21.00
2022-09-10T07:29:29.686Z,21.50
2022-09-10T07:31:56.475Z,21.10
2022-09-10T07:34:24.786Z,20.30
2022-09-10T07:36:52.758Z,19.90
2022-09-10T07:39:25.356Z,19.70
2022-09-10T07:41:53.332Z,19.40
2022-09-10T07:44:23.165Z,19.90
2022-09-10T07:46:49.810Z,20.70
2022-09-10T07:49:17.277Z,20.90
2022-09-10T07:51:47.293Z,20.50
2022-09-10T07:54:17.177Z,20.20
2022-09-10T07:56:50.302Z,20.60
2022-09-10T07:59:17.176Z,20.10
2022-09-10T08:01:50.733Z,19.50
2022-09-10T08:04:19.551Z,19.70
2022-09-10T08:06:46.304Z,19.50
2022-09-10T08:09:14.790Z,19.80
2022-09-10T08:11:48.721Z,20.00
2022-09-10T08:14:17.018Z,19.70
2022-09-10T08:16:48.222Z,19.30
2022-09-10T08:19:16.341Z,19.70
2022-09-10T08:21:45.177Z,20.20
2022-09-10T08:24:13.616Z,20.60
2022-09-10T08:26:43.208Z,20.50
2022-09-10T08:29:09.893Z,19.20
2022-09-10T08:31:36.974Z,19.10
2022-09-10T08:34:13.723Z,18.90
2022-09-10T08:36:43.790Z,18.90
2022-09-10T08:39:12.081Z,18.70
2022-09-10T08:41:38.674Z,18.60
2022-09-10T08:44:25.646Z,18.30
2022-09-10T08:47:06.281Z,18.30
2022-09-10T08:49:44.379Z,18.40
2022-09-10T08:52:24.771Z,18.60
2022-09-10T08:55:16.285Z,18.70
2022-09-10T08:57:55.939Z,18.60
2022-09-10T09:00:26.530Z,18.50
2022-09-10T09:03:12.602Z,18.40
2022-09-10T09:06:00.160Z,18.50
2022-09-10T09:08:36.606Z,18.40
2022-09-10T09:11:41.078Z,18.30
2022-09-10T09:14:22.211Z,18.30
2022-09-10T09:17:14.499Z,18.20
2022-09-10T09:19:57.159Z,18.20
2022-09-10T09:22:40.186Z,18.20
2022-09-10T09:25:31.280Z,18.30
2022-09-10T09:28:02.928Z,18.40
2022-09-10T09:30:49.111Z,18.60
2022-09-10T09:33:20.942Z,18.70
2022-09-10T09:36:04.587Z,18.70
2022-09-10T09:38:44.340Z,18.80
2022-09-10T09:41:31.137Z,19.00
2022-09-10T09:44:26.674Z,19.20
2022-09-10T09:46:53.471Z,19.30
2022-09-10T09:49:20.365Z,19.40
2022-09-10T09:51:48.576Z,19.40
2022-09-10T09:55:10.151Z,19.50
2022-09-10T09:57:17.032Z,19.60
2022-09-10T09:59:43.964Z,19.70
2022-09-10T10:02:16.003Z,19.80
2022-09-10T10:04:56.610Z,20.00
2022-09-10T10:07:32.268Z,20.10
2022-09-10T10:10:04.642Z,20.00
2022-09-10T10:12:32.208Z,20.30
2022-09-10T10:15:00.775Z,20.40
2022-09-10T10:17:35.809Z,20.40
2022-09-10T10:20:17.579Z,20.40
2022-09-10T10:22:45.364Z,20.70
2022-09-10T10:25:31.031Z,20.80
2022-09-10T10:27:57.882Z,21.20
2022-09-10T10:30:25.297Z,21.30
2022-09-10T10:32:56.190Z,21.40
2022-09-10T10:35:39.118Z,21.20
2022-09-10T10:38:11.316Z,21.10
2022-09-10T10:41:05.404Z,21.10
2022-09-10T10:43:47.187Z,21.10
2022-09-10T10:46:19.981Z,20.90
2022-09-10T10:49:22.760Z,20.70
2022-09-10T10:52:13.942Z,20.60
2022-09-10T10:55:00.451Z,20.70
2022-09-10T10:57:55.784Z,20.70
2022-09-10T11:00:22.674Z,20.60
2022-09-10T11:03:02.542Z,20.50
2022-09-10T11:05:42.178Z,20.80
2022-09-10T11:08:27.045Z,21.10
2022-09-10T11:11:04.744Z,20.70
2022-09-10T11:13:40.679Z,20.60
2022-09-10T11:16:20.196Z,21.30
2022-09-10T11:18:53.991Z,21.40
2022-09-10T11:21:24.835Z,21.70
2022-09-10T11:24:04.580Z,22.00
2022-09-10T11:26:41.489Z,21.80
2022-09-10T11:29:32.571Z,21.50
2022-09-10T11:32:34.615Z,21.40
2022-09-10T11:35:19.220Z,21.50
2022-09-10T11:38:01.110Z,21.30
2022-09-10T11:40:43.416Z,21.20
2022-09-10T11:43:37.136Z,21.20
2022-09-10T11:46:10.016Z,21.40
2022-09-10T11:49:03.499Z,21.40
2022-09-10T11:51:37.751Z,21.60
2022-09-10T11:54:11.545Z,21.90
2022-09-10T11:56:46.105Z,21.90
2022-09-10T11:59:45.302Z,22.20
2022-09-10T12:02:39.326Z,21.70
2022-09-10T12:05:37.944Z,22.00
2022-09-10T12:08:35.836Z,22.00
2022-09-10T12:11:35.384Z,22.00
2022-09-10T12:14:07.554Z,22.20
2022-09-10T12:16:47.331Z,22.30
2022-09-10T12:19:26.281Z,22.30
2022-09-10T12:22:01.657Z,22.40
2022-09-10T12:24:34.547Z,22.10
2022-09-10T12:27:02.962Z,22.20
2022-09-10T12:29:38.738Z,22.00
2022-09-10T12:32:12.216Z,21.60
2022-09-10T12:34:40.572Z,22.10
2022-09-10T12:37:20.831Z,22.10
2022-09-10T12:39:48.486Z,22.10
2022-09-10T12:42:28.674Z,22.00
2022-09-10T12:44:56.161Z,21.80
2022-09-10T12:47:44.094Z,21.80
2022-09-10T12:50:21.776Z,21.60
2022-09-10T12:52:51.547Z,21.60
2022-09-10T12:55:31.934Z,21.00
2022-09-10T12:58:24.002Z,21.40
2022-09-10T13:01:09.302Z,21.70
2022-09-10T13:03:36.333Z,21.70
2022-09-10T13:06:05.235Z,21.80
2022-09-10T13:08:41.430Z,21.10
2022-09-10T13:11:21.623Z,21.10
2022-09-10T13:14:02.388Z,21.10
2022-09-10T13:16:29.370Z,21.00
2022-09-10T13:19:14.448Z,20.60
2022-09-10T13:21:41.104Z,20.70
2022-09-10T13:24:36.262Z,20.80
2022-09-10T13:27:33.792Z,20.70
2022-09-10T13:30:11.439Z,20.60
2022-09-10T13:32:43.450Z,20.50
2022-09-10T13:35:39.185Z,20.30
2022-09-10T13:38:08.658Z,20.20
2022-09-10T13:40:59.922Z,20.00
2022-09-10T13:43:41.801Z,19.80
2022-09-10T13:46:30.860Z,19.70
2022-09-10T13:49:24.522Z,19.60
2022-09-10T13:51:54.134Z,19.10
2022-09-10T13:54:35.638Z,19.10
2022-09-10T13:57:22.001Z,19.10
2022-09-10T13:59:52.383Z,18.90
2022-09-10T14:02:21.185Z,19.10
2022-09-10T14:04:48.509Z,19.10
2022-09-10T14:07:17.352Z,19.00
2022-09-10T14:09:47.306Z,19.10
2022-09-10T14:12:16.260Z,19.30
2022-09-10T14:14:47.700Z,19.30
2022-09-10T14:17:25.738Z,19.60
2022-09-10T14:20:05.528Z,19.60
2022-09-10T14:22:32.483Z,19.70
2022-09-10T14:25:01.406Z,19.70
2022-09-10T14:27:33.193Z,19.70
2022-09-10T14:30:18.338Z,19.50
2022-09-10T14:32:46.184Z,19.90
2022-09-10T14:35:34.760Z,20.00
2022-09-10T14:38:04.860Z,20.10
2022-09-10T14:40:36.804Z,19.80
2022-09-10T14:43:28.168Z,20.00
2022-09-10T14:45:54.958Z,20.40
2022-09-10T14:49:01.736Z,20.40
2022-09-10T14:51:28.385Z,20.40
2022-09-10T14:53:58.695Z,20.40
2022-09-10T14:56:40.843Z,20.30
2022-09-10T14:59:15.695Z,19.90
2022-09-10T15:01:44.310Z,20.10
2022-09-10T15:04:17.352Z,20.30
2022-09-10T15:06:44.249Z,20.30
2022-09-10T15:09:14.862Z,20.40
2022-09-10T15:11:54.831Z,20.50
2022-09-10T15:14:21.762Z,20.50
2022-09-10T15:16:52.116Z,20.60
2022-09-10T15:19:23.030Z,20.70
2022-09-10T15:21:50.609Z,20.10
2022-09-10T15:24:22.016Z,20.40
2022-09-10T15:26:49.426Z,20.60
2022-09-10T15:29:17.836Z,20.70
2022-09-10T15:31:44.842Z,20.80
2022-09-10T15:34:12.198Z,20.80
2022-09-10T15:36:40.353Z,20.80
2022-09-10T15:39:11.098Z,20.70
2022-09-10T15:41:42.532Z,20.80
2022-09-10T15:44:09.251Z,21.10
2022-09-10T15:46:35.929Z,21.10
2022-09-10T15:49:04.191Z,21.10
2022-09-10T15:51:30.911Z,20.40
2022-09-10T15:53:59.826Z,20.50
2022-09-10T15:56:28.455Z,20.60
2022-09-10T15:58:57.203Z,20.60
2022-09-10T16:01:26.222Z,20.60
2022-09-10T16:03:58.581Z,20.60
2022-09-10T16:06:31.489Z,20.50
2022-09-10T16:09:03.568Z,20.50
2022-09-10T16:11:32.922Z,20.50
2022-09-10T16:14:04.524Z,20.30
2022-09-10T16:16:32.381Z,20.20
2022-09-10T16:19:00.373Z,20.30
2022-09-10T16:21:33.572Z,20.50
2022-09-10T16:24:01.275Z,20.40
2022-09-10T16:26:30.970Z,20.40
2022-09-10T16:29:06.204Z,20.40
2022-09-10T16:31:39.105Z,20.20
2022-09-10T16:34:08.649Z,20.10
2022-09-10T16:36:36.969Z,20.40
2022-09-10T16:39:11.687Z,20.50
2022-09-10T16:41:43.924Z,20.70
2022-09-10T16:44:11.810Z,20.60
2022-09-10T16:46:39.013Z,20.20
2022-09-10T16:49:07.858Z,20.50
2022-09-10T16:51:35.393Z,20.50
2022-09-10T16:54:04.857Z,20.50
2022-09-10T16:56:35.988Z,20.60
2022-09-10T16:59:02.666Z,20.50
2022-09-10T17:01:29.671Z,20.50
2022-09-10T17:03:56.356Z,20.40
2022-09-10T17:06:25.395Z,20.40
2022-09-10T17:08:54.393Z,20.30
2022-09-10T17:11:22.675Z,20.20
2022-09-10T17:13:50.860Z,20.20
2022-09-10T17:16:20.779Z,20.00
2022-09-10T17:18:53.922Z,19.70
2022-09-10T17:21:20.520Z,19.50
2022-09-10T17:23:47.257Z,19.50
2022-09-10T17:26:13.984Z,19.30
2022-09-10T17:28:40.942Z,19.40
2022-09-10T17:31:07.674Z,19.20
2022-09-10T17:33:34.363Z,19.10
2022-09-10T17:36:03.323Z,19.00
2022-09-10T17:38:31.148Z,18.90
2022-09-10T17:41:00.160Z,18.80
2022-09-10T17:43:29.093Z,18.80
2022-09-10T17:45:56.194Z,18.80
2022-09-10T17:48:26.367Z,18.90
2022-09-10T17:50:54.252Z,18.80
2022-09-10T17:53:20.926Z,18.80
2022-09-10T17:55:47.556Z,18.70
2022-09-10T17:58:16.015Z,18.60
2022-09-10T18:00:49.495Z,18.60
2022-09-10T18:03:17.608Z,18.50
2022-09-10T18:05:45.390Z,18.50
2022-09-10T18:08:12.352Z,18.50
2022-09-10T18:10:39.596Z,18.50
2022-09-10T18:13:09.983Z,18.50
2022-09-10T18:15:42.138Z,18.50
2022-09-10T18:18:09.434Z,18.50
2022-09-10T18:20:36.174Z,18.60
2022-09-10T18:23:02.995Z,18.60
2022-09-10T18:25:31.101Z,18.50
2022-09-10T18:28:03.917Z,18.50
2022-09-10T18:30:30.670Z,18.50
2022-09-10T18:32:57.604Z,18.40
2022-09-10T18:35:24.353Z,18.40
2022-09-10T18:37:51.735Z,18.40
2022-09-10T18:40:19.669Z,18.30
2022-09-10T18:42:49.570Z,18.20
2022-09-10T18:45:17.322Z,18.20
2022-09-10T18:47:45.447Z,18.20
2022-09-10T18:50:13.090Z,18.20
2022-09-10T18:52:39.900Z,18.30
2022-09-10T18:55:07.053Z,18.20
2022-09-10T18:57:33.659Z,18.20
2022-09-10T19:00:00.486Z,18.20
2022-09-10T19:02:27.196Z,18.20
2022-09-10T19:05:10.726Z,18.20
2022-09-10T19:07:38.803Z,18.20
2022-09-10T19:10:07.013Z,18.00
2022-09-10T19:12:34.061Z,18.10
2022-09-10T19:15:00.723Z,18.00
2022-09-10T19:17:27.376Z,18.00
2022-09-10T19:19:54.030Z,18.00
2022-09-10T19:22:20.673Z,18.00
2022-09-10T19:24:55.922Z,18.00
2022-09-10T19:27:23.847Z,18.00
2022-09-10T19:29:50.748Z,17.90
2022-09-10T19:32:19.498Z,17.90
2022-09-10T19:34:48.796Z,17.90
2022-09-10T19:37:15.486Z,17.90
2022-09-10T19:39:42.942Z,17.90
2022-09-10T19:42:09.845Z,17.90
2022-09-10T19:44:36.622Z,17.90
2022-09-10T19:47:04.038Z,17.90
2022-09-10T19:49:31.218Z,17.80
2022-09-10T19:51:57.811Z,17.70
2022-09-10T19:54:25.618Z,17.70
2022-09-10T19:56:52.471Z,17.60
2022-09-10T19:59:19.119Z,17.60
2022-09-10T20:01:46.147Z,17.50
2022-09-10T20:04:14.133Z,17.50
2022-09-10T20:06:42.593Z,17.50
2022-09-10T20:09:10.137Z,17.50
2022-09-10T20:11:37.870Z,17.50
2022-09-10T20:14:07.830Z,17.60
2022-09-10T20:16:40.273Z,17.60
2022-09-10T20:19:07.801Z,17.60
2022-09-10T20:21:35.676Z,17.60
2022-09-10T20:24:02.930Z,17.60
2022-09-10T20:26:31.893Z,17.50
2022-09-10T20:29:05.191Z,17.40
2022-09-10T20:31:34.158Z,17.30
2022-09-10T20:34:04.767Z,17.20
2022-09-10T20:36:33.983Z,17.00
2022-09-10T20:39:01.123Z,17.00
2022-09-10T20:41:30.144Z,16.90
2022-09-10T20:43:59.203Z,16.70
2022-09-10T20:46:27.729Z,16.70
2022-09-10T20:48:56.748Z,16.60
2022-09-10T20:51:23.656Z,16.60
2022-09-10T20:53:50.368Z,16.60
2022-09-10T20:56:19.158Z,16.50
2022-09-10T20:58:47.012Z,16.40
2022-09-10T21:01:24.961Z,16.30
2022-09-10T21:03:58.731Z,16.30
2022-09-10T21:06:32.801Z,16.30
2022-09-10T21:09:10.830Z,16.00
2022-09-10T21:11:50.385Z,15.90
2022-09-10T21:14:24.712Z,15.80
2022-09-10T21:16:58.081Z,15.90
2022-09-10T21:19:27.544Z,15.90
2022-09-10T21:22:03.771Z,15.80
2022-09-10T21:25:04.860Z,15.80
2022-09-10T21:27:38.197Z,15.60
2022-09-10T21:30:05.432Z,15.50
2022-09-10T21:32:32.049Z,15.50
2022-09-10T21:34:59.284Z,15.50
2022-09-10T21:37:26.228Z,15.50
2022-09-10T21:39:53.026Z,15.40
2022-09-10T21:42:19.670Z,15.30
2022-09-10T21:44:46.334Z,15.30
2022-09-10T21:47:14.285Z,15.20
2022-09-10T21:49:40.971Z,15.30
2022-09-10T21:52:09.209Z,15.20
2022-09-10T21:54:36.532Z,15.20
2022-09-10T21:57:04.067Z,15.20
2022-09-10T21:59:30.735Z,15.10
2022-09-10T22:01:57.455Z,15.10
2022-09-10T22:04:24.181Z,15.00
2022-09-10T22:06:51.365Z,15.10
2022-09-10T22:09:18.117Z,15.00
2022-09-10T22:11:46.965Z,15.00
2022-09-10T22:14:19.081Z,15.00
2022-09-10T22:16:45.828Z,15.00
2022-09-10T22:19:18.123Z,15.00
2022-09-10T22:21:45.253Z,15.00
2022-09-10T22:24:13.907Z,15.00
2022-09-10T22:26:43.187Z,15.00
2022-09-10T22:29:10.757Z,15.00
2022-09-10T22:31:37.704Z,15.00
2022-09-10T22:34:15.643Z,15.00
2022-09-10T22:36:44.650Z,15.00
2022-09-10T22:39:14.488Z,15.00
2022-09-10T22:41:42.243Z,15.10
2022-09-10T22:44:09.482Z,15.10
2022-09-10T22:46:37.133Z,15.00
2022-09-10T22:49:05.141Z,15.00
2022-09-10T22:51:36.004Z,15.00
2022-09-10T22:54:04.323Z,15.00
2022-09-10T22:56:31.166Z,14.90
2022-09-10T22:58:59.275Z,15.00
2022-09-10T23:01:29.192Z,14.90
2022-09-10T23:03:58.029Z,14.80
2022-09-10T23:06:26.603Z,14.80
2022-09-10T23:08:55.338Z,14.80
2022-09-10T23:11:25.140Z,14.90
2022-09-10T23:14:01.361Z,14.90
2022-09-10T23:16:29.562Z,14.90
2022-09-10T23:18:58.062Z,14.90
2022-09-10T23:21:26.530Z,14.90
2022-09-10T23:23:55.524Z,15.00
2022-09-10T23:26:23.221Z,15.00
2022-09-10T23:28:50.736Z,14.90
2022-09-10T23:31:23.125Z,14.90
2022-09-10T23:33:59.200Z,14.90
2022-09-10T23:36:27.350Z,14.90
2022-09-10T23:38:54.099Z,14.80
2022-09-10T23:41:21.499Z,14.80
2022-09-10T23:43:48.158Z,14.80
2022-09-10T23:46:15.003Z,14.80
2022-09-10T23:48:45.845Z,14.80
2022-09-10T23:51:15.493Z,14.70
2022-09-10T23:53:44.945Z,14.70
2022-09-10T23:56:13.029Z,14.70
2022-09-10T23:58:40.299Z,14.70
